Andreas, Pennsylvania
Current Conditions -  °F | °C
As of 11:35 PM on Thursday 20 Nov 2014 (Local Time) from KHZL Reporting Station
Clear Clear  
Wind Chill: 11°   Ceiling: Unl
Heat Index: 23°   Visibility: 10mi
Dew Point:   Wind: 13mph
Humidity: 54%   Direction: 260°W
Pressure: 29.99"   Gusts: 24mph
Location:  40.75°N, 75.79°W
Report Text: KHZL 210435Z AUTO 26011G21KT 210V280 10SM CLR M05/M13 A2999 RMK AO2
Loading
Personal Weather Stations






























Interactive Weather Map New forecast layout! Learn more

10-Day Weather Forecast

Advertisements
Track Severe Weather on mobile